sensor_id;sensor_type;location;lat;lon;timestamp;P1;durP1;ratioP1;P2;durP2;ratioP2
50363;SDS011;36272;59.400;17.982;2022-12-18T00:05:00;46.33;;;20.23;;
50363;SDS011;36272;59.400;17.982;2022-12-18T00:10:22;43.78;;;19.52;;
50363;SDS011;36272;59.400;17.982;2022-12-18T00:15:24;45.65;;;20.13;;
50363;SDS011;36272;59.400;17.982;2022-12-18T00:20:26;47.97;;;21.35;;
50363;SDS011;36272;59.400;17.982;2022-12-18T00:36:08;49.63;;;20.52;;
50363;SDS011;36272;59.400;17.982;2022-12-18T00:41:21;46.08;;;21.17;;
50363;SDS011;36272;59.400;17.982;2022-12-18T00:46:45;49.00;;;19.92;;
50363;SDS011;36272;59.400;17.982;2022-12-18T00:51:48;42.90;;;20.05;;
50363;SDS011;36272;59.400;17.982;2022-12-18T00:56:50;43.92;;;20.15;;
50363;SDS011;36272;59.400;17.982;2022-12-18T01:02:02;40.10;;;20.00;;
50363;SDS011;36272;59.400;17.982;2022-12-18T01:07:06;47.13;;;20.35;;
50363;SDS011;36272;59.400;17.982;2022-12-18T01:12:08;42.88;;;19.88;;
50363;SDS011;36272;59.400;17.982;2022-12-18T01:17:21;51.08;;;20.73;;
50363;SDS011;36272;59.400;17.982;2022-12-18T01:22:23;51.30;;;20.77;;
50363;SDS011;36272;59.400;17.982;2022-12-18T01:27:27;41.10;;;20.65;;
50363;SDS011;36272;59.400;17.982;2022-12-18T01:32:32;40.45;;;21.50;;
50363;SDS011;36272;59.400;17.982;2022-12-18T01:37:36;39.53;;;20.60;;
50363;SDS011;36272;59.400;17.982;2022-12-18T01:42:43;40.83;;;18.83;;
50363;SDS011;36272;59.400;17.982;2022-12-18T01:53:00;42.83;;;20.00;;
50363;SDS011;36272;59.400;17.982;2022-12-18T01:58:19;46.38;;;19.77;;
50363;SDS011;36272;59.400;17.982;2022-12-18T02:03:27;36.70;;;17.70;;
50363;SDS011;36272;59.400;17.982;2022-12-18T02:08:49;34.92;;;17.83;;
50363;SDS011;36272;59.400;17.982;2022-12-18T02:30:28;35.50;;;17.02;;
50363;SDS011;36272;59.400;17.982;2022-12-18T02:35:35;33.45;;;16.90;;
50363;SDS011;36272;59.400;17.982;2022-12-18T02:40:44;33.55;;;17.08;;
50363;SDS011;36272;59.400;17.982;2022-12-18T02:56:11;32.83;;;16.55;;
50363;SDS011;36272;59.400;17.982;2022-12-18T03:01:33;31.33;;;15.55;;
50363;SDS011;36272;59.400;17.982;2022-12-18T03:06:57;32.75;;;15.55;;
50363;SDS011;36272;59.400;17.982;2022-12-18T03:17:26;39.08;;;17.20;;
50363;SDS011;36272;59.400;17.982;2022-12-18T03:22:31;25.80;;;12.63;;
50363;SDS011;36272;59.400;17.982;2022-12-18T03:27:35;39.28;;;16.63;;
50363;SDS011;36272;59.400;17.982;2022-12-18T03:32:57;35.38;;;16.88;;
50363;SDS011;36272;59.400;17.982;2022-12-18T03:38:06;33.55;;;16.85;;
50363;SDS011;36272;59.400;17.982;2022-12-18T03:48:49;31.77;;;16.48;;
50363;SDS011;36272;59.400;17.982;2022-12-18T03:53:58;31.83;;;16.42;;
50363;SDS011;36272;59.400;17.982;2022-12-18T03:59:02;36.87;;;15.57;;
50363;SDS011;36272;59.400;17.982;2022-12-18T04:04:06;28.40;;;15.15;;
50363;SDS011;36272;59.400;17.982;2022-12-18T04:09:14;33.28;;;16.75;;
50363;SDS011;36272;59.400;17.982;2022-12-18T04:14:16;31.27;;;17.60;;
50363;SDS011;36272;59.400;17.982;2022-12-18T04:19:18;33.20;;;15.05;;
50363;SDS011;36272;59.400;17.982;2022-12-18T04:24:19;37.22;;;16.60;;
50363;SDS011;36272;59.400;17.982;2022-12-18T04:29:21;33.15;;;16.77;;
50363;SDS011;36272;59.400;17.982;2022-12-18T04:34:23;30.88;;;15.05;;
50363;SDS011;36272;59.400;17.982;2022-12-18T04:39:24;29.20;;;15.48;;
50363;SDS011;36272;59.400;17.982;2022-12-18T04:44:36;33.42;;;15.52;;
50363;SDS011;36272;59.400;17.982;2022-12-18T04:49:38;26.70;;;15.30;;
50363;SDS011;36272;59.400;17.982;2022-12-18T04:55:00;29.42;;;15.48;;
50363;SDS011;36272;59.400;17.982;2022-12-18T05:00:09;31.08;;;15.02;;
50363;SDS011;36272;59.400;17.982;2022-12-18T05:05:14;33.92;;;15.15;;
50363;SDS011;36272;59.400;17.982;2022-12-18T05:15:52;25.83;;;13.20;;
50363;SDS011;36272;59.400;17.982;2022-12-18T05:25:59;30.13;;;13.38;;
50363;SDS011;36272;59.400;17.982;2022-12-18T05:31:03;32.65;;;14.70;;
50363;SDS011;36272;59.400;17.982;2022-12-18T05:36:06;28.83;;;13.82;;
50363;SDS011;36272;59.400;17.982;2022-12-18T05:41:09;31.98;;;14.13;;
50363;SDS011;36272;59.400;17.982;2022-12-18T05:46:16;30.85;;;14.07;;
50363;SDS011;36272;59.400;17.982;2022-12-18T05:51:21;30.98;;;14.38;;
50363;SDS011;36272;59.400;17.982;2022-12-18T05:56:26;35.38;;;15.00;;
50363;SDS011;36272;59.400;17.982;2022-12-18T06:01:28;30.13;;;13.95;;
50363;SDS011;36272;59.400;17.982;2022-12-18T06:06:30;29.65;;;13.88;;
50363;SDS011;36272;59.400;17.982;2022-12-18T06:11:31;27.52;;;13.38;;
50363;SDS011;36272;59.400;17.982;2022-12-18T06:16:33;27.98;;;12.85;;
50363;SDS011;36272;59.400;17.982;2022-12-18T06:21:35;26.48;;;13.82;;
50363;SDS011;36272;59.400;17.982;2022-12-18T06:26:42;28.83;;;13.30;;
50363;SDS011;36272;59.400;17.982;2022-12-18T06:31:50;27.30;;;13.85;;
50363;SDS011;36272;59.400;17.982;2022-12-18T06:37:14;31.58;;;13.45;;
50363;SDS011;36272;59.400;17.982;2022-12-18T06:42:18;25.45;;;12.68;;
50363;SDS011;36272;59.400;17.982;2022-12-18T06:47:20;24.13;;;12.10;;
50363;SDS011;36272;59.400;17.982;2022-12-18T06:52:22;24.02;;;12.60;;
50363;SDS011;36272;59.400;17.982;2022-12-18T06:57:24;27.00;;;12.77;;
50363;SDS011;36272;59.400;17.982;2022-12-18T07:02:25;31.38;;;13.43;;
50363;SDS011;36272;59.400;17.982;2022-12-18T07:07:27;29.13;;;12.88;;
50363;SDS011;36272;59.400;17.982;2022-12-18T07:12:31;28.35;;;13.02;;
50363;SDS011;36272;59.400;17.982;2022-12-18T07:17:32;31.58;;;13.70;;
50363;SDS011;36272;59.400;17.982;2022-12-18T07:22:37;29.17;;;14.38;;
50363;SDS011;36272;59.400;17.982;2022-12-18T07:27:39;25.63;;;13.80;;
50363;SDS011;36272;59.400;17.982;2022-12-18T07:32:42;36.47;;;15.18;;
50363;SDS011;36272;59.400;17.982;2022-12-18T07:37:46;33.05;;;13.50;;
50363;SDS011;36272;59.400;17.982;2022-12-18T07:42:48;28.67;;;13.48;;
50363;SDS011;36272;59.400;17.982;2022-12-18T07:48:12;32.15;;;13.85;;
50363;SDS011;36272;59.400;17.982;2022-12-18T07:53:47;24.33;;;13.35;;
50363;SDS011;36272;59.400;17.982;2022-12-18T07:58:59;35.35;;;15.68;;
50363;SDS011;36272;59.400;17.982;2022-12-18T08:04:06;36.53;;;14.95;;
50363;SDS011;36272;59.400;17.982;2022-12-18T08:09:09;29.08;;;14.38;;
50363;SDS011;36272;59.400;17.982;2022-12-18T08:14:13;30.58;;;14.60;;
50363;SDS011;36272;59.400;17.982;2022-12-18T08:19:15;31.55;;;15.43;;
50363;SDS011;36272;59.400;17.982;2022-12-18T08:24:17;41.53;;;17.17;;
50363;SDS011;36272;59.400;17.982;2022-12-18T08:29:19;41.35;;;17.70;;
50363;SDS011;36272;59.400;17.982;2022-12-18T08:34:21;28.35;;;16.63;;
50363;SDS011;36272;59.400;17.982;2022-12-18T08:45:57;33.63;;;17.00;;
50363;SDS011;36272;59.400;17.982;2022-12-18T08:51:01;33.25;;;16.33;;
50363;SDS011;36272;59.400;17.982;2022-12-18T08:56:10;33.30;;;16.90;;
50363;SDS011;36272;59.400;17.982;2022-12-18T09:12:23;30.92;;;16.88;;
50363;SDS011;36272;59.400;17.982;2022-12-18T09:22:52;28.83;;;16.75;;
50363;SDS011;36272;59.400;17.982;2022-12-18T09:33:25;30.00;;;16.17;;
50363;SDS011;36272;59.400;17.982;2022-12-18T09:38:32;29.02;;;15.25;;
50363;SDS011;36272;59.400;17.982;2022-12-18T09:43:43;29.13;;;15.23;;
50363;SDS011;36272;59.400;17.982;2022-12-18T09:48:50;34.58;;;17.75;;
50363;SDS011;36272;59.400;17.982;2022-12-18T09:53:59;31.48;;;16.80;;
50363;SDS011;36272;59.400;17.982;2022-12-18T09:59:05;35.05;;;16.00;;
50363;SDS011;36272;59.400;17.982;2022-12-18T10:04:22;30.33;;;15.57;;
50363;SDS011;36272;59.400;17.982;2022-12-18T10:09:30;29.80;;;16.45;;
50363;SDS011;36272;59.400;17.982;2022-12-18T10:31:18;30.98;;;15.85;;
50363;SDS011;36272;59.400;17.982;2022-12-18T10:36:23;30.20;;;15.63;;
50363;SDS011;36272;59.400;17.982;2022-12-18T10:41:31;30.23;;;15.35;;
50363;SDS011;36272;59.400;17.982;2022-12-18T10:47:02;32.25;;;15.77;;
50363;SDS011;36272;59.400;17.982;2022-12-18T10:52:52;25.85;;;14.25;;
50363;SDS011;36272;59.400;17.982;2022-12-18T11:19:44;33.03;;;16.60;;
50363;SDS011;36272;59.400;17.982;2022-12-18T11:35:37;31.20;;;16.43;;
50363;SDS011;36272;59.400;17.982;2022-12-18T11:40:44;31.33;;;16.63;;
50363;SDS011;36272;59.400;17.982;2022-12-18T11:45:52;29.13;;;15.05;;
50363;SDS011;36272;59.400;17.982;2022-12-18T11:51:02;35.40;;;16.60;;
50363;SDS011;36272;59.400;17.982;2022-12-18T11:56:30;34.67;;;15.45;;
50363;SDS011;36272;59.400;17.982;2022-12-18T12:40:10;28.05;;;13.60;;
50363;SDS011;36272;59.400;17.982;2022-12-18T12:45:37;25.73;;;13.18;;
50363;SDS011;36272;59.400;17.982;2022-12-18T12:50:41;33.28;;;14.65;;
50363;SDS011;36272;59.400;17.982;2022-12-18T12:55:44;25.17;;;13.43;;
50363;SDS011;36272;59.400;17.982;2022-12-18T13:11:59;25.77;;;12.00;;
50363;SDS011;36272;59.400;17.982;2022-12-18T13:17:30;23.48;;;11.25;;
50363;SDS011;36272;59.400;17.982;2022-12-18T13:27:58;23.80;;;10.75;;
50363;SDS011;36272;59.400;17.982;2022-12-18T13:38:39;20.77;;;10.10;;
50363;SDS011;36272;59.400;17.982;2022-12-18T13:43:48;21.85;;;9.88;;
50363;SDS011;36272;59.400;17.982;2022-12-18T13:54:25;25.38;;;9.35;;
50363;SDS011;36272;59.400;17.982;2022-12-18T14:04:46;28.70;;;8.20;;
50363;SDS011;36272;59.400;17.982;2022-12-18T14:09:49;16.55;;;7.93;;
50363;SDS011;36272;59.400;17.982;2022-12-18T14:15:00;21.40;;;8.40;;
50363;SDS011;36272;59.400;17.982;2022-12-18T14:25:18;18.75;;;7.65;;
50363;SDS011;36272;59.400;17.982;2022-12-18T14:36:53;19.45;;;7.10;;
50363;SDS011;36272;59.400;17.982;2022-12-18T14:42:26;22.20;;;9.43;;
50363;SDS011;36272;59.400;17.982;2022-12-18T14:54:02;22.98;;;9.18;;
50363;SDS011;36272;59.400;17.982;2022-12-18T14:59:22;20.83;;;7.72;;
50363;SDS011;36272;59.400;17.982;2022-12-18T15:04:38;16.95;;;6.50;;
50363;SDS011;36272;59.400;17.982;2022-12-18T15:26:15;18.63;;;5.70;;
50363;SDS011;36272;59.400;17.982;2022-12-18T15:31:22;12.05;;;5.18;;
50363;SDS011;36272;59.400;17.982;2022-12-18T15:36:29;16.38;;;5.20;;
50363;SDS011;36272;59.400;17.982;2022-12-18T15:41:32;17.63;;;5.20;;
50363;SDS011;36272;59.400;17.982;2022-12-18T15:46:35;15.35;;;4.70;;
50363;SDS011;36272;59.400;17.982;2022-12-18T15:51:37;16.40;;;4.55;;
50363;SDS011;36272;59.400;17.982;2022-12-18T15:56:40;14.65;;;5.30;;
50363;SDS011;36272;59.400;17.982;2022-12-18T16:02:00;17.05;;;4.70;;
50363;SDS011;36272;59.400;17.982;2022-12-18T16:07:02;16.15;;;4.50;;
50363;SDS011;36272;59.400;17.982;2022-12-18T16:12:04;13.60;;;4.63;;
50363;SDS011;36272;59.400;17.982;2022-12-18T16:17:08;21.17;;;4.28;;
50363;SDS011;36272;59.400;17.982;2022-12-18T16:22:17;14.18;;;3.88;;
50363;SDS011;36272;59.400;17.982;2022-12-18T16:27:22;13.48;;;3.35;;
50363;SDS011;36272;59.400;17.982;2022-12-18T16:32:24;14.07;;;4.25;;
50363;SDS011;36272;59.400;17.982;2022-12-18T16:37:26;11.68;;;3.08;;
50363;SDS011;36272;59.400;17.982;2022-12-18T16:42:35;13.65;;;3.45;;
50363;SDS011;36272;59.400;17.982;2022-12-18T16:47:41;14.40;;;3.38;;
50363;SDS011;36272;59.400;17.982;2022-12-18T16:53:00;17.52;;;3.75;;
50363;SDS011;36272;59.400;17.982;2022-12-18T16:58:30;11.70;;;3.50;;
50363;SDS011;36272;59.400;17.982;2022-12-18T17:10:19;16.83;;;3.35;;
50363;SDS011;36272;59.400;17.982;2022-12-18T17:15:34;12.43;;;3.13;;
50363;SDS011;36272;59.400;17.982;2022-12-18T17:20:37;12.25;;;3.30;;
50363;SDS011;36272;59.400;17.982;2022-12-18T17:25:41;12.32;;;3.15;;
50363;SDS011;36272;59.400;17.982;2022-12-18T17:30:47;19.25;;;3.50;;
50363;SDS011;36272;59.400;17.982;2022-12-18T17:35:49;15.85;;;3.58;;
50363;SDS011;36272;59.400;17.982;2022-12-18T17:40:50;16.05;;;3.53;;
50363;SDS011;36272;59.400;17.982;2022-12-18T17:46:07;20.48;;;3.22;;
50363;SDS011;36272;59.400;17.982;2022-12-18T17:51:09;17.95;;;3.30;;
50363;SDS011;36272;59.400;17.982;2022-12-18T17:56:12;10.75;;;2.85;;
50363;SDS011;36272;59.400;17.982;2022-12-18T18:01:19;14.25;;;2.95;;
50363;SDS011;36272;59.400;17.982;2022-12-18T18:06:22;15.40;;;3.03;;
50363;SDS011;36272;59.400;17.982;2022-12-18T18:12:03;10.63;;;2.88;;
50363;SDS011;36272;59.400;17.982;2022-12-18T18:17:26;18.20;;;3.33;;
50363;SDS011;36272;59.400;17.982;2022-12-18T18:22:28;22.75;;;3.45;;
50363;SDS011;36272;59.400;17.982;2022-12-18T18:27:35;23.23;;;4.13;;
50363;SDS011;36272;59.400;17.982;2022-12-18T18:32:37;20.65;;;3.85;;
50363;SDS011;36272;59.400;17.982;2022-12-18T18:37:46;12.77;;;2.67;;
50363;SDS011;36272;59.400;17.982;2022-12-18T18:42:48;19.52;;;3.13;;
50363;SDS011;36272;59.400;17.982;2022-12-18T18:47:51;15.15;;;2.72;;
50363;SDS011;36272;59.400;17.982;2022-12-18T18:52:58;19.70;;;3.33;;
50363;SDS011;36272;59.400;17.982;2022-12-18T18:58:00;13.43;;;2.97;;
50363;SDS011;36272;59.400;17.982;2022-12-18T19:03:02;17.00;;;3.25;;
50363;SDS011;36272;59.400;17.982;2022-12-18T19:08:04;18.77;;;3.05;;
50363;SDS011;36272;59.400;17.982;2022-12-18T19:13:07;17.27;;;3.00;;
50363;SDS011;36272;59.400;17.982;2022-12-18T19:18:27;11.65;;;2.17;;
50363;SDS011;36272;59.400;17.982;2022-12-18T19:23:28;13.60;;;2.97;;
50363;SDS011;36272;59.400;17.982;2022-12-18T19:28:31;19.70;;;2.90;;
50363;SDS011;36272;59.400;17.982;2022-12-18T19:33:34;20.75;;;3.40;;
50363;SDS011;36272;59.400;17.982;2022-12-18T19:38:38;18.33;;;3.35;;
50363;SDS011;36272;59.400;17.982;2022-12-18T19:43:40;18.23;;;2.90;;
50363;SDS011;36272;59.400;17.982;2022-12-18T19:48:45;13.57;;;2.72;;
50363;SDS011;36272;59.400;17.982;2022-12-18T19:53:48;9.15;;;2.25;;
50363;SDS011;36272;59.400;17.982;2022-12-18T19:58:50;8.48;;;2.17;;
50363;SDS011;36272;59.400;17.982;2022-12-18T20:03:53;11.93;;;2.22;;
50363;SDS011;36272;59.400;17.982;2022-12-18T20:08:59;7.97;;;1.85;;
50363;SDS011;36272;59.400;17.982;2022-12-18T20:14:03;12.35;;;2.30;;
50363;SDS011;36272;59.400;17.982;2022-12-18T20:19:05;12.50;;;2.50;;
50363;SDS011;36272;59.400;17.982;2022-12-18T20:24:10;12.35;;;2.03;;
50363;SDS011;36272;59.400;17.982;2022-12-18T20:29:40;16.45;;;2.65;;
50363;SDS011;36272;59.400;17.982;2022-12-18T20:34:45;9.02;;;2.10;;
50363;SDS011;36272;59.400;17.982;2022-12-18T20:39:46;12.32;;;2.53;;
50363;SDS011;36272;59.400;17.982;2022-12-18T20:44:48;13.88;;;2.67;;
50363;SDS011;36272;59.400;17.982;2022-12-18T20:49:50;9.02;;;2.28;;
50363;SDS011;36272;59.400;17.982;2022-12-18T20:54:52;10.30;;;1.92;;
50363;SDS011;36272;59.400;17.982;2022-12-18T20:59:56;12.32;;;1.80;;
50363;SDS011;36272;59.400;17.982;2022-12-18T21:04:58;7.15;;;1.83;;
50363;SDS011;36272;59.400;17.982;2022-12-18T21:09:59;11.65;;;2.33;;
50363;SDS011;36272;59.400;17.982;2022-12-18T21:15:02;8.45;;;1.63;;
50363;SDS011;36272;59.400;17.982;2022-12-18T21:20:13;10.23;;;1.92;;
50363;SDS011;36272;59.400;17.982;2022-12-18T21:25:16;7.57;;;1.95;;
50363;SDS011;36272;59.400;17.982;2022-12-18T21:30:18;10.25;;;2.08;;
50363;SDS011;36272;59.400;17.982;2022-12-18T21:35:29;11.05;;;1.70;;
50363;SDS011;36272;59.400;17.982;2022-12-18T21:40:31;10.10;;;2.28;;
50363;SDS011;36272;59.400;17.982;2022-12-18T21:45:33;6.40;;;2.25;;
50363;SDS011;36272;59.400;17.982;2022-12-18T21:50:37;9.13;;;1.52;;
50363;SDS011;36272;59.400;17.982;2022-12-18T21:55:38;9.65;;;1.88;;
50363;SDS011;36272;59.400;17.982;2022-12-18T22:00:40;16.05;;;2.45;;
50363;SDS011;36272;59.400;17.982;2022-12-18T22:05:42;9.95;;;2.08;;
50363;SDS011;36272;59.400;17.982;2022-12-18T22:10:47;4.83;;;1.97;;
50363;SDS011;36272;59.400;17.982;2022-12-18T22:15:49;5.68;;;1.33;;
50363;SDS011;36272;59.400;17.982;2022-12-18T22:20:59;8.88;;;1.73;;
50363;SDS011;36272;59.400;17.982;2022-12-18T22:26:01;6.70;;;2.15;;
50363;SDS011;36272;59.400;17.982;2022-12-18T22:31:03;9.70;;;2.30;;
50363;SDS011;36272;59.400;17.982;2022-12-18T22:36:05;10.52;;;2.15;;
50363;SDS011;36272;59.400;17.982;2022-12-18T22:41:07;10.57;;;2.35;;
50363;SDS011;36272;59.400;17.982;2022-12-18T22:46:11;9.82;;;2.30;;
50363;SDS011;36272;59.400;17.982;2022-12-18T22:51:17;15.25;;;2.80;;
50363;SDS011;36272;59.400;17.982;2022-12-18T22:56:19;14.10;;;2.45;;
50363;SDS011;36272;59.400;17.982;2022-12-18T23:01:22;13.20;;;2.55;;
50363;SDS011;36272;59.400;17.982;2022-12-18T23:06:26;13.27;;;2.70;;
50363;SDS011;36272;59.400;17.982;2022-12-18T23:11:30;13.55;;;2.70;;
50363;SDS011;36272;59.400;17.982;2022-12-18T23:16:32;11.82;;;2.50;;
50363;SDS011;36272;59.400;17.982;2022-12-18T23:21:52;16.27;;;2.78;;
50363;SDS011;36272;59.400;17.982;2022-12-18T23:26:57;18.58;;;2.70;;
50363;SDS011;36272;59.400;17.982;2022-12-18T23:31:59;11.52;;;2.60;;
50363;SDS011;36272;59.400;17.982;2022-12-18T23:37:00;19.67;;;3.42;;
50363;SDS011;36272;59.400;17.982;2022-12-18T23:42:03;26.10;;;3.55;;
50363;SDS011;36272;59.400;17.982;2022-12-18T23:47:05;10.70;;;2.85;;
50363;SDS011;36272;59.400;17.982;2022-12-18T23:52:07;18.88;;;3.22;;
50363;SDS011;36272;59.400;17.982;2022-12-18T23:57:08;15.82;;;3.13;;
